RJSM(METAR)
05/30 17:00
METAR RJSM 300800Z 32012KT 9999 FEW030 23/09 Q1017 RMK 1CU030 A3005=
戻る
トップページへ戻る
IMOC Co,.Ltd.